Time;durP1;ratioP1;P1;durP2;ratioP2;P2;SDS_P1;SDS_P2;PMS_P1;PMS_P2;Temp;Humidity;BMP_temperature;BMP_pressure;BME280_temperature;BME280_humidity;BME280_pressure;Samples;Min_cycle;Max_cycle;Signal;HPM_P1;HPM_P2
2021/01/19 00:01:21;;;;;;;10.18;9.00;;;;;;;20.04;44.11;100206.72;5077011;28;20039;-85
2021/01/19 00:03:46;;;;;;;11.65;10.45;;;;;;;20.05;44.08;100203.56;5076831;28;20032;-84
2021/01/19 00:06:15;;;;;;;11.95;10.75;;;;;;;20.03;43.70;100202.38;5076619;28;20032;-83
2021/01/19 00:08:40;;;;;;;11.93;10.57;;;;;;;20.01;44.19;100191.66;5076429;28;20028;-87
2021/01/19 00:11:06;;;;;;;12.43;10.00;;;;;;;19.84;44.51;100190.38;5089886;28;20067;-84
2021/01/19 00:13:32;;;;;;;11.80;10.38;;;;;;;19.87;44.57;100192.38;5074276;28;20471;-82
2021/01/19 00:15:57;;;;;;;12.02;10.73;;;;;;;20.00;44.30;100184.50;5074294;28;20035;-85
2021/01/19 00:18:25;;;;;;;11.80;10.15;;;;;;;20.03;44.17;100180.19;5074426;28;20024;-83
2021/01/19 00:20:51;;;;;;;11.07;9.80;;;;;;;20.03;44.00;100178.22;5073006;28;20067;-86
2021/01/19 00:23:16;;;;;;;11.05;9.75;;;;;;;19.97;44.28;100176.19;5073181;28;20107;-85
2021/01/19 00:25:42;;;;;;;11.02;9.75;;;;;;;19.99;44.03;100166.28;5072895;28;20124;-83
2021/01/19 00:28:09;;;;;;;11.00;9.77;;;;;;;20.02;44.09;100164.72;5074087;28;20028;-85
2021/01/19 00:30:40;;;;;;;14.40;9.43;;;;;;;20.00;44.19;100159.56;5072788;28;20025;-83
2021/01/19 00:33:06;;;;;;;11.80;10.57;;;;;;;19.60;45.08;100155.03;5089528;28;20024;-83
2021/01/19 00:35:32;;;;;;;12.60;10.82;;;;;;;19.58;45.23;100149.09;5056408;28;20033;-86
2021/01/19 00:37:59;;;;;;;12.40;10.35;;;;;;;19.51;45.55;100152.59;5071555;28;20094;-83
2021/01/19 00:40:29;;;;;;;13.48;11.02;;;;;;;19.54;45.32;100146.25;5073854;28;20031;-84
2021/01/19 00:42:54;;;;;;;;;;;;;;;19.58;45.40;100141.56;5073484;28;20047;-83
2021/01/19 00:45:20;;;;;;;12.40;10.90;;;;;;;19.62;45.20;100141.56;5072540;28;19913;-87
2021/01/19 00:47:46;;;;;;;12.75;11.45;;;;;;;19.68;45.04;100140.03;5072674;28;20020;-82
2021/01/19 00:50:12;;;;;;;11.85;10.43;;;;;;;19.71;44.99;100132.91;5072221;28;20035;-82
2021/01/19 00:52:38;;;;;;;13.30;10.80;;;;;;;19.72;44.98;100126.16;5072393;28;20050;-81
2021/01/19 00:55:07;;;;;;;10.52;9.10;;;;;;;19.75;44.99;100134.53;5072190;28;20032;-82
2021/01/19 00:57:32;;;;;;;12.37;11.07;;;;;;;19.73;44.86;100122.25;5088952;28;20037;-83
2021/01/19 00:59:58;;;;;;;12.05;10.35;;;;;;;19.50;45.55;100117.75;5072314;28;20270;-87
2021/01/19 01:02:25;;;;;;;12.38;10.85;;;;;;;19.41;45.91;100118.06;5072148;28;20028;-82
2021/01/19 01:04:53;;;;;;;12.45;10.68;;;;;;;19.37;45.82;100120.06;5071950;28;20056;-84
2021/01/19 01:07:19;;;;;;;14.20;11.00;;;;;;;19.38;45.83;100109.75;5072333;28;20064;-83
2021/01/19 01:09:44;;;;;;;13.93;10.98;;;;;;;19.64;45.23;100109.50;5072493;28;20060;-83
2021/01/19 01:12:10;;;;;;;14.13;11.23;;;;;;;19.67;44.94;100107.97;5072261;28;20506;-82
2021/01/19 01:14:36;;;;;;;12.18;10.73;;;;;;;19.15;46.43;100104.50;5072433;28;20029;-83
2021/01/19 01:17:02;;;;;;;12.40;10.68;;;;;;;19.24;46.15;100109.69;5073551;28;20048;-85
2021/01/19 01:19:28;;;;;;;12.05;10.18;;;;;;;19.59;45.28;100100.81;5072183;28;20027;-83
2021/01/19 01:21:53;;;;;;;12.10;10.38;;;;;;;19.69;44.83;100105.59;5072045;28;20024;-83
2021/01/19 01:24:19;;;;;;;11.88;10.63;;;;;;;19.62;45.25;100097.25;5072055;28;20031;-86
2021/01/19 01:26:45;;;;;;;11.65;10.05;;;;;;;19.51;45.48;100094.41;5072353;28;20023;-81
2021/01/19 01:29:10;;;;;;;15.52;10.57;;;;;;;19.34;46.01;100090.34;5073109;28;20033;-85
2021/01/19 01:31:36;;;;;;;13.63;10.52;;;;;;;19.62;45.22;100097.25;5089255;28;20475;-81
2021/01/19 01:34:03;;;;;;;12.65;10.63;;;;;;;19.44;45.65;100090.81;5071982;28;20024;-86
2021/01/19 01:36:28;;;;;;;13.20;11.70;;;;;;;19.66;45.02;100089.75;5073285;28;20150;-84
2021/01/19 01:38:54;;;;;;;13.80;11.43;;;;;;;19.70;44.98;100079.44;5072263;28;20111;-83
2021/01/19 01:41:21;;;;;;;15.20;12.32;;;;;;;19.74;44.92;100074.72;5088912;28;20113;-85
2021/01/19 01:43:48;;;;;;;13.60;11.90;;;;;;;19.38;45.78;100071.78;5072703;28;20031;-82
2021/01/19 01:46:15;;;;;;;20.13;12.32;;;;;;;19.44;45.61;100071.41;5071643;28;20493;-82
2021/01/19 01:48:42;;;;;;;14.27;11.57;;;;;;;19.59;45.28;100071.13;5071689;28;20529;-82
2021/01/19 01:51:09;;;;;;;14.02;11.68;;;;;;;19.58;45.20;100066.75;5075524;28;20513;-83
2021/01/19 01:53:37;;;;;;;15.32;12.32;;;;;;;19.31;45.89;100057.88;5075608;28;20089;-82
2021/01/19 01:56:03;;;;;;;15.73;12.20;;;;;;;19.49;45.55;100062.72;5075887;28;20028;-87
2021/01/19 01:58:30;;;;;;;15.95;13.07;;;;;;;19.57;45.21;100053.28;5075534;28;20031;-82
2021/01/19 02:00:56;;;;;;;15.30;12.90;;;;;;;19.61;45.21;100052.09;5075252;28;20098;-82
2021/01/19 02:03:23;;;;;;;15.32;11.80;;;;;;;19.71;44.86;100053.31;5075700;28;20666;-83
2021/01/19 02:05:48;;;;;;;15.70;12.65;;;;;;;19.71;44.79;100052.53;5058851;28;20086;-83
2021/01/19 02:08:26;;;;;;;16.23;12.43;;;;;;;19.53;45.23;100046.91;5075548;28;20024;-84
2021/01/19 02:10:59;;;;;;;17.52;13.55;;;;;;;19.62;44.94;100050.91;5075459;28;20040;-86
2021/01/19 02:13:57;;;;;;;16.08;13.50;;;;;;;19.64;44.93;100044.97;5075559;28;20033;-83
2021/01/19 02:16:58;;;;;;;15.50;13.55;;;;;;;19.70;44.68;100045.41;5092110;28;20032;-84
2021/01/19 02:19:57;;;;;;;16.17;13.55;;;;;;;19.64;44.92;100042.22;5056401;28;20113;-86
2021/01/19 02:22:43;;;;;;;17.52;14.27;;;;;;;19.65;44.91;100043.81;5075252;28;20090;-83
2021/01/19 02:25:48;;;;;;;17.10;14.18;;;;;;;19.81;44.69;100040.69;5092285;28;20067;-82
2021/01/19 02:28:30;;;;;;;18.80;15.45;;;;;;;19.86;44.32;100043.06;5074962;28;20036;-82
2021/01/19 02:31:33;;;;;;;20.02;15.70;;;;;;;19.81;44.61;100044.25;5091866;28;20119;-81
2021/01/19 02:34:16;;;;;;;22.35;16.58;;;;;;;19.82;44.65;100043.06;5075264;28;20115;-83
2021/01/19 02:36:46;;;;;;;22.92;16.65;;;;;;;19.82;44.61;100037.53;5075267;28;20025;-82
2021/01/19 02:39:20;;;;;;;19.33;15.70;;;;;;;19.83;44.58;100032.78;5075018;28;20056;-82
2021/01/19 02:41:49;;;;;;;21.33;16.98;;;;;;;19.98;44.01;100033.59;5091925;28;20032;-82
2021/01/19 02:44:20;;;;;;;22.58;16.88;;;;;;;19.80;44.30;100028.00;5091843;28;20060;-85
2021/01/19 02:46:56;;;;;;;20.30;15.95;;;;;;;19.76;44.66;100032.75;5074697;28;20032;-82
2021/01/19 02:49:22;;;;;;;24.10;16.42;;;;;;;19.66;44.99;100029.56;5091692;28;20052;-86
2021/01/19 02:51:50;;;;;;;21.77;16.92;;;;;;;19.73;44.87;100031.56;5091906;28;20029;-82
2021/01/19 02:54:17;;;;;;;20.30;16.38;;;;;;;19.79;44.54;100029.97;5091763;28;20025;-84
2021/01/19 02:57:19;;;;;;;20.85;15.40;;;;;;;19.77;44.67;100023.25;5091974;28;20024;-83
2021/01/19 03:00:03;;;;;;;19.58;15.23;;;;;;;19.77;44.49;100024.03;5074668;28;20024;-82
2021/01/19 03:02:38;;;;;;;29.30;18.30;;;;;;;19.78;44.54;100019.28;5073738;28;20060;-86
2021/01/19 03:05:08;;;;;;;20.05;15.00;;;;;;;19.33;45.40;100008.44;5074255;28;20024;-83
2021/01/19 03:07:38;;;;;;;22.00;16.52;;;;;;;19.75;44.59;100018.09;5091295;28;20052;-82
2021/01/19 03:10:05;;;;;;;20.27;15.73;;;;;;;19.79;44.30;100007.81;5090273;28;20040;-86
2021/01/19 03:12:33;;;;;;;25.08;16.65;;;;;;;19.76;44.44;100016.91;5073897;28;20285;-86
2021/01/19 03:14:59;;;;;;;21.02;13.73;;;;;;;19.62;44.86;100005.78;5075703;28;20479;-82
2021/01/19 03:17:25;;;;;;;18.95;13.85;;;;;;;19.71;44.28;100006.19;5074302;28;20030;-86
2021/01/19 03:19:51;;;;;;;19.95;14.02;;;;;;;19.66;44.54;100010.16;5073901;28;20115;-81
2021/01/19 03:22:16;;;;;;;19.98;13.55;;;;;;;19.60;44.59;100010.94;5074053;28;20048;-82
2021/01/19 03:24:42;;;;;;;15.82;11.48;;;;;;;19.61;44.64;100005.00;5075407;28;20040;-86
2021/01/19 03:27:08;;;;;;;12.80;10.32;;;;;;;19.65;44.42;100007.78;5075310;28;20442;-83
2021/01/19 03:29:35;;;;;;;15.90;12.02;;;;;;;19.42;45.17;100002.53;5075040;28;20033;-82
2021/01/19 03:32:00;;;;;;;16.90;11.30;;;;;;;19.62;44.64;100005.78;5075160;28;20513;-85
2021/01/19 03:34:26;;;;;;;16.15;11.45;;;;;;;19.68;44.56;100002.25;5074790;28;20020;-86
2021/01/19 03:36:52;;;;;;;12.73;10.48;;;;;;;19.73;44.74;100003.84;5075187;28;20027;-82
2021/01/19 03:39:18;;;;;;;14.38;11.48;;;;;;;19.74;44.28;99996.34;5074959;28;20108;-83
2021/01/19 03:41:44;;;;;;;13.15;10.80;;;;;;;19.67;44.54;100003.44;5073838;28;20056;-85
2021/01/19 03:44:09;;;;;;;11.15;8.63;;;;;;;19.33;45.42;100002.88;5073477;28;20708;-86
2021/01/19 03:46:36;;;;;;;12.38;9.13;;;;;;;19.49;45.16;100001.75;5073587;28;20048;-83
2021/01/19 03:49:02;;;;;;;11.07;7.53;;;;;;;19.47;45.06;100001.38;5090604;28;20067;-81
2021/01/19 03:51:27;;;;;;;8.18;6.22;;;;;;;19.51;44.85;99993.88;5090579;28;20479;-81
2021/01/19 03:53:53;;;;;;;8.45;5.65;;;;;;;19.49;45.07;99987.91;5074800;28;20060;-83
2021/01/19 03:56:19;;;;;;;7.78;5.88;;;;;;;19.38;45.24;99999.75;5074229;28;20111;-83
2021/01/19 03:58:45;;;;;;;7.53;5.90;;;;;;;19.50;45.33;99992.28;5074606;28;20086;-82
2021/01/19 04:01:11;;;;;;;8.68;5.53;;;;;;;19.41;45.54;99989.84;5072569;28;20028;-83
2021/01/19 04:03:37;;;;;;;6.97;5.15;;;;;;;19.09;46.23;99981.44;5073241;28;20033;-81
2021/01/19 04:06:06;;;;;;;5.88;4.35;;;;;;;19.35;45.67;99983.13;5073023;28;20043;-84
2021/01/19 04:08:36;;;;;;;6.90;5.20;;;;;;;19.20;45.72;99979.50;5089738;28;20032;-81
2021/01/19 04:11:02;;;;;;;7.18;5.15;;;;;;;19.11;46.46;99973.53;5059232;28;20483;-86
2021/01/19 04:13:28;;;;;;;6.05;4.63;;;;;;;19.08;46.84;99979.84;5089614;28;20115;-85
2021/01/19 04:15:53;;;;;;;7.20;4.78;;;;;;;19.33;45.79;99982.72;5089914;28;20052;-82
2021/01/19 04:18:19;;;;;;;6.30;4.13;;;;;;;19.32;45.63;99978.34;5090245;28;20111;-82
2021/01/19 04:20:45;;;;;;;11.40;5.40;;;;;;;19.01;46.35;99982.59;5089465;28;20048;-82
2021/01/19 04:23:14;;;;;;;5.65;3.95;;;;;;;19.01;46.57;99982.59;5089757;28;20028;-86
2021/01/19 04:25:46;;;;;;;5.32;3.92;;;;;;;19.27;45.86;99978.72;5089723;28;20041;-83
2021/01/19 04:28:12;;;;;;;5.40;3.38;;;;;;;18.95;46.83;99971.06;5074084;28;20029;-83
2021/01/19 04:30:42;;;;;;;4.40;3.40;;;;;;;19.33;45.58;99975.19;5073918;28;20050;-82
2021/01/19 04:33:08;;;;;;;6.75;3.85;;;;;;;19.39;45.36;99973.63;5089609;28;20390;-83
2021/01/19 04:35:34;;;;;;;5.07;3.35;;;;;;;19.44;45.45;99972.47;5089590;28;20198;-82
2021/01/19 04:37:59;;;;;;;6.50;3.55;;;;;;;19.46;44.99;99974.84;5072802;28;20512;-85
2021/01/19 04:40:25;;;;;;;4.93;3.67;;;;;;;19.47;45.58;99973.66;5072492;28;20036;-82
2021/01/19 04:42:51;;;;;;;5.13;3.03;;;;;;;19.43;45.43;99970.09;5072512;28;20043;-83
2021/01/19 04:45:18;;;;;;;4.32;3.28;;;;;;;19.24;45.70;99965.66;5089503;28;20174;-85
2021/01/19 04:47:44;;;;;;;5.40;3.03;;;;;;;19.45;45.30;99968.50;5073637;28;20032;-82
2021/01/19 04:50:12;;;;;;;6.03;3.05;;;;;;;19.44;45.21;99953.09;5089265;28;20021;-83
2021/01/19 04:52:43;;;;;;;6.88;3.97;;;;;;;19.44;45.19;99943.97;5073525;28;20029;-81
2021/01/19 04:55:15;;;;;;;5.38;3.30;;;;;;;19.47;44.97;99945.94;5089423;28;20390;-81
2021/01/19 04:57:41;;;;;;;5.93;3.45;;;;;;;19.41;45.50;99940.00;5089454;28;20017;-82
2021/01/19 05:00:10;;;;;;;6.80;3.58;;;;;;;19.39;45.34;99942.38;5089151;28;20027;-86
2021/01/19 05:02:49;;;;;;;5.70;3.67;;;;;;;19.41;45.42;99945.53;5089116;28;20024;-82
2021/01/19 05:05:49;;;;;;;5.00;3.40;;;;;;;18.90;46.59;99948.53;5089045;28;20118;-82
2021/01/19 05:08:18;;;;;;;3.53;2.80;;;;;;;18.87;46.65;99949.28;5089157;28;20052;-82
2021/01/19 05:10:55;;;;;;;4.43;3.40;;;;;;;18.99;46.47;99935.91;5074777;28;20076;-82
2021/01/19 05:13:53;;;;;;;4.32;3.60;;;;;;;18.95;46.40;99939.84;5075738;28;20039;-86
2021/01/19 05:16:22;;;;;;;7.32;3.90;;;;;;;18.96;46.67;99933.13;5093476;28;20479;-86
2021/01/19 05:18:48;;;;;;;6.05;3.58;;;;;;;18.93;46.49;99934.69;5093287;28;20032;-85
2021/01/19 05:21:15;;;;;;;6.47;3.17;;;;;;;18.93;46.52;99926.38;5093454;28;20036;-82
2021/01/19 05:23:41;;;;;;;4.53;3.58;;;;;;;18.91;46.50;99925.19;5091914;28;20429;-83
2021/01/19 05:26:08;;;;;;;5.75;3.03;;;;;;;18.94;46.62;99922.44;5093252;28;20080;-85
2021/01/19 05:28:38;;;;;;;4.72;3.17;;;;;;;18.94;46.27;99922.44;5092228;28;20394;-82
2021/01/19 05:31:16;;;;;;;;;;;;;;;18.82;46.83;99918.06;5093211;28;20031;-82
2021/01/19 05:33:54;;;;;;;6.80;3.42;;;;;;;18.83;46.58;99916.06;5075217;28;19923;-82
2021/01/19 05:36:22;;;;;;;7.55;3.30;;;;;;;18.81;46.50;99910.91;5093248;28;20036;-82
2021/01/19 05:38:52;;;;;;;6.75;3.42;;;;;;;18.90;46.64;99898.72;5091725;28;20058;-82
2021/01/19 05:41:37;;;;;;;6.05;3.40;;;;;;;18.89;46.51;99895.13;5075092;28;20040;-83
2021/01/19 05:44:27;;;;;;;9.32;4.05;;;;;;;18.83;46.63;99900.25;5091943;28;20066;-83
2021/01/19 05:47:05;;;;;;;8.07;3.00;;;;;;;18.77;47.01;99887.19;5093329;28;20035;-83
2021/01/19 05:49:41;;;;;;;6.85;3.40;;;;;;;18.82;46.63;99897.88;5093252;28;20107;-82
2021/01/19 05:52:11;;;;;;;5.32;3.30;;;;;;;18.93;46.45;99901.47;5093122;28;20020;-84
2021/01/19 05:54:42;;;;;;;4.05;2.92;;;;;;;18.99;46.30;99899.13;5075240;28;20024;-85
2021/01/19 05:57:10;;;;;;;4.95;2.70;;;;;;;18.97;46.14;99894.00;5091835;28;20092;-86
2021/01/19 05:59:37;;;;;;;5.32;3.03;;;;;;;18.85;46.61;99889.59;5091805;28;20077;-82
2021/01/19 06:02:06;;;;;;;5.03;3.13;;;;;;;18.96;46.24;99886.06;5074792;28;20028;-82
2021/01/19 06:04:53;;;;;;;5.53;3.20;;;;;;;18.62;47.06;99878.00;5091587;28;20467;-82
2021/01/19 06:07:24;;;;;;;4.05;2.58;;;;;;;18.90;46.50;99882.09;5092311;28;20039;-81
2021/01/19 06:09:51;;;;;;;5.53;3.63;;;;;;;18.94;46.49;99872.59;5074752;28;20055;-85
2021/01/19 06:12:18;;;;;;;7.70;3.17;;;;;;;18.60;47.31;99871.28;5067964;28;20045;-86
2021/01/19 06:14:48;;;;;;;4.35;2.90;;;;;;;18.72;47.06;99871.72;5068311;28;20025;-81
2021/01/19 06:17:21;;;;;;;;;;;;;;;18.67;46.96;99872.13;5053064;28;20154;-82
2021/01/19 06:19:47;;;;;;;4.20;2.75;;;;;;;18.80;46.60;99851.19;5051801;28;19916;-85
2021/01/19 06:22:15;;;;;;;7.70;3.35;;;;;;;18.70;47.10;99854.72;5052542;28;20037;-85
2021/01/19 06:24:48;;;;;;;5.65;2.83;;;;;;;18.74;46.80;99858.31;5068652;28;20032;-85
2021/01/19 06:27:20;;;;;;;5.18;2.65;;;;;;;18.81;46.71;99861.09;5051142;28;20025;-82
2021/01/19 06:29:46;;;;;;;7.90;3.10;;;;;;;18.89;46.50;99867.44;5068459;28;20036;-82
2021/01/19 06:32:14;;;;;;;4.38;2.70;;;;;;;18.60;47.00;99847.16;5052524;28;20024;-85
2021/01/19 06:34:40;;;;;;;6.35;2.63;;;;;;;18.75;46.87;99854.38;5052902;28;20689;-82
2021/01/19 06:37:08;;;;;;;4.85;2.25;;;;;;;18.60;47.50;99846.38;5054500;28;20020;-82
2021/01/19 06:39:42;;;;;;;10.27;3.00;;;;;;;18.75;46.72;99848.03;5071465;28;20495;-81
2021/01/19 06:42:15;;;;;;;6.00;2.22;;;;;;;18.68;47.24;99840.50;5071444;28;20121;-81
2021/01/19 06:44:46;;;;;;;5.50;2.50;;;;;;;18.79;46.79;99833.03;5071519;28;20021;-82
2021/01/19 06:47:15;;;;;;;8.10;2.55;;;;;;;18.72;47.07;99837.75;5056015;28;20472;-81
2021/01/19 06:49:41;;;;;;;4.80;2.47;;;;;;;18.78;46.91;99830.66;5070907;28;20036;-81
2021/01/19 06:52:11;;;;;;;11.38;2.83;;;;;;;18.67;47.39;99835.38;5054238;28;20041;-80
2021/01/19 06:54:55;;;;;;;5.90;2.33;;;;;;;18.83;46.86;99814.47;5071004;28;20025;-81
2021/01/19 06:57:32;;;;;;;6.50;2.50;;;;;;;18.71;47.09;99831.41;5055589;28;20104;-80
2021/01/19 07:00:08;;;;;;;5.68;2.20;;;;;;;18.66;47.20;99822.69;5055507;28;20048;-81
2021/01/19 07:02:40;;;;;;;3.95;2.58;;;;;;;18.67;47.50;99818.75;5055307;28;20040;-80
2021/01/19 07:05:12;;;;;;;7.45;3.30;;;;;;;18.53;47.67;99809.19;5055289;28;20052;-81
2021/01/19 07:08:03;;;;;;;7.70;3.13;;;;;;;18.60;47.37;99802.09;5055289;28;20036;-81
2021/01/19 07:10:57;;;;;;;2.55;1.60;;;;;;;18.48;47.71;99798.50;5055201;28;20021;-80
2021/01/19 07:13:26;;;;;;;8.30;2.70;;;;;;;18.62;47.57;99802.50;5053613;28;20446;-82
2021/01/19 07:16:10;;;;;;;9.95;3.13;;;;;;;18.66;47.35;99809.63;5055329;28;20554;-85
2021/01/19 07:19:22;;;;;;;5.38;1.52;;;;;;;19.09;46.00;99780.09;5055149;28;20029;-82
2021/01/19 07:22:32;;;;;;;5.43;2.03;;;;;;;19.04;46.34;99785.22;4993912;28;20058;-82
2021/01/19 07:24:58;;;;;;;6.25;2.42;;;;;;;18.96;46.44;99765.03;5033706;28;20403;-82
2021/01/19 07:27:24;;;;;;;4.50;2.72;;;;;;;18.88;46.60;99779.28;5053938;28;20031;-82
2021/01/19 07:29:50;;;;;;;7.50;2.63;;;;;;;18.74;47.06;99774.47;5070395;28;20165;-81
2021/01/19 07:32:24;;;;;;;5.43;2.83;;;;;;;18.81;47.04;99767.00;5055312;28;20033;-81
2021/01/19 07:34:50;;;;;;;5.32;2.65;;;;;;;18.81;47.03;99761.47;5055076;28;20104;-80
2021/01/19 07:37:15;;;;;;;7.75;3.35;;;;;;;18.56;47.81;99766.91;5070141;28;20047;-80
2021/01/19 07:39:41;;;;;;;5.20;2.97;;;;;;;18.96;46.66;99753.97;5054674;28;20023;-81
2021/01/19 07:42:17;;;;;;;7.55;3.60;;;;;;;18.89;46.79;99753.97;5054835;28;20479;-80
2021/01/19 07:44:54;;;;;;;7.10;3.33;;;;;;;18.93;46.56;99756.75;5070383;28;20479;-83
2021/01/19 07:47:20;;;;;;;7.20;3.75;;;;;;;18.92;46.61;99730.25;5053766;28;20583;-81
2021/01/19 07:49:45;;;;;;;5.35;4.00;;;;;;;18.89;46.86;99753.16;5069524;28;20036;-84
2021/01/19 07:52:13;;;;;;;13.18;4.32;;;;;;;18.70;47.12;99732.19;5070498;28;20475;-84
2021/01/19 07:54:41;;;;;;;10.27;6.95;;;;;;;18.96;46.72;99733.81;5069985;28;20087;-81
2021/01/19 07:57:16;;;;;;;11.68;9.00;;;;;;;19.01;46.45;99722.34;5070006;28;20512;-81
2021/01/19 07:59:45;;;;;;;7.53;3.60;;;;;;;18.97;46.18;99732.66;5050363;28;20037;-82
2021/01/19 08:02:28;;;;;;;8.55;5.45;;;;;;;18.99;46.51;99720.00;5068124;28;20053;-84
2021/01/19 08:05:02;;;;;;;9.05;4.18;;;;;;;18.90;46.52;99711.28;5055841;28;20078;-82
2021/01/19 08:07:41;;;;;;;13.70;4.43;;;;;;;18.90;46.73;99716.03;5053771;28;20079;-82
2021/01/19 08:10:23;;;;;;;12.95;5.72;;;;;;;18.91;46.56;99706.53;5049056;28;20047;-81
2021/01/19 08:12:55;;;;;;;13.98;5.57;;;;;;;18.92;46.54;99708.91;5067429;28;20044;-83
2021/01/19 08:15:31;;;;;;;15.65;10.45;;;;;;;18.96;46.62;99695.06;5072028;28;20025;-82
2021/01/19 08:17:58;;;;;;;19.75;9.63;;;;;;;18.96;46.54;99700.59;5047589;28;20029;-82
2021/01/19 08:20:26;;;;;;;19.77;17.75;;;;;;;18.94;46.61;99686.38;5070614;28;20027;-82
2021/01/19 08:22:52;;;;;;;10.57;7.22;;;;;;;18.90;46.88;99691.13;5062033;28;20036;-83
2021/01/19 08:25:29;;;;;;;12.95;7.55;;;;;;;19.00;46.53;99682.81;5065676;28;20467;-82
2021/01/19 08:27:59;;;;;;;13.80;6.10;;;;;;;19.19;45.90;99689.91;5042285;28;20055;-82
2021/01/19 08:30:28;;;;;;;23.75;12.02;;;;;;;19.25;45.68;99680.03;5070948;28;20356;-80
2021/01/19 08:32:55;;;;;;;17.00;8.50;;;;;;;19.22;45.71;99678.06;5045481;28;20063;-82
2021/01/19 08:35:25;;;;;;;9.80;6.65;;;;;;;19.21;45.98;99670.94;5055622;28;20032;-81
2021/01/19 08:37:57;;;;;;;7.78;3.83;;;;;;;19.28;45.75;99664.59;5062563;28;20033;-82
2021/01/19 08:40:31;;;;;;;12.10;5.32;;;;;;;19.27;45.66;99658.28;5062997;28;20056;-81
2021/01/19 08:42:57;;;;;;;7.80;4.25;;;;;;;19.34;45.49;99655.47;5056080;28;20686;-80
2021/01/19 08:45:29;;;;;;;9.95;4.55;;;;;;;19.26;45.73;99653.13;5064069;28;20566;-84
2021/01/19 08:47:57;;;;;;;13.65;4.40;;;;;;;19.21;45.99;99648.78;5058867;28;20112;-92
2021/01/19 08:50:24;;;;;;;15.20;4.85;;;;;;;19.23;45.96;99642.84;5058198;28;20043;-79
2021/01/19 08:52:50;;;;;;;17.77;9.48;;;;;;;19.32;45.80;99640.44;5052122;28;20119;-79
2021/01/19 08:55:22;;;;;;;8.82;3.83;;;;;;;19.21;46.11;99643.25;5055238;28;20566;-81
2021/01/19 08:57:55;;;;;;;23.00;13.55;;;;;;;18.94;46.72;99631.00;5070258;28;20112;-80
2021/01/19 09:00:36;;;;;;;12.88;5.57;;;;;;;19.05;46.86;99626.25;5071833;28;20025;-93
2021/01/19 09:03:13;;;;;;;6.05;3.53;;;;;;;19.24;46.68;99620.28;5071313;28;20133;-79
2021/01/19 09:05:39;;;;;;;39.22;35.00;;;;;;;19.26;46.76;99614.34;5069311;28;20415;-80
2021/01/19 09:08:16;;;;;;;72.05;64.13;;;;;;;19.23;47.46;99604.09;5073257;28;20031;-79
2021/01/19 09:10:42;;;;;;;108.40;97.57;;;;;;;19.39;47.28;99605.22;5072902;28;20056;-86
2021/01/19 09:13:08;;;;;;;140.77;126.90;;;;;;;19.38;47.56;99589.78;5093426;28;20038;-81
2021/01/19 09:15:44;;;;;;;79.20;71.13;;;;;;;19.46;48.01;99590.56;5071039;28;20028;-81
2021/01/19 09:18:14;;;;;;;15.45;12.90;;;;;;;19.51;47.67;99579.09;5093066;28;20055;-81
2021/01/19 09:20:43;;;;;;;25.67;22.20;;;;;;;19.61;47.63;99572.72;5074375;28;20550;-79
2021/01/19 09:23:17;;;;;;;14.07;10.13;;;;;;;19.24;49.05;99569.66;5096881;28;20024;-80
2021/01/19 09:25:47;;;;;;;17.52;11.93;;;;;;;19.42;48.50;99567.59;5073827;28;20283;-81
2021/01/19 09:28:14;;;;;;;;;;;;;;;19.27;49.26;99564.13;5092722;28;20055;-80
2021/01/19 09:30:40;;;;;;;16.02;13.98;;;;;;;19.36;48.87;99558.16;5075500;28;20008;-87
2021/01/19 09:33:08;;;;;;;7.25;3.25;;;;;;;19.41;48.53;99558.50;5076309;28;20028;-83
2021/01/19 09:35:34;;;;;;;7.45;2.13;;;;;;;19.40;48.78;99548.63;5092182;28;20028;-79
2021/01/19 09:38:01;;;;;;;5.97;2.13;;;;;;;19.30;49.28;99552.22;5090683;28;20028;-79
2021/01/19 09:40:45;;;;;;;8.07;2.00;;;;;;;19.17;49.87;99541.97;5092272;28;20024;-78
2021/01/19 09:43:16;;;;;;;5.15;1.98;;;;;;;19.33;49.20;99532.03;5088334;28;20028;-80
2021/01/19 09:45:43;;;;;;;4.30;1.60;;;;;;;19.43;49.09;99532.41;5090786;28;20386;-79
2021/01/19 09:48:10;;;;;;;2.65;1.55;;;;;;;19.47;49.02;99527.63;5092308;28;20107;-79
2021/01/19 09:50:36;;;;;;;4.20;1.70;;;;;;;19.51;49.01;99529.22;5091277;28;20084;-78
2021/01/19 09:53:02;;;;;;;5.18;2.15;;;;;;;19.50;48.88;99515.78;5092212;28;20040;-80
2021/01/19 09:55:32;;;;;;;4.03;1.48;;;;;;;19.42;49.28;99514.97;5091225;28;20118;-81
2021/01/19 09:58:02;;;;;;;13.40;2.40;;;;;;;19.43;48.94;99510.25;5092190;28;20024;-79
2021/01/19 10:00:33;;;;;;;2.97;1.60;;;;;;;19.49;49.05;99509.41;5089720;28;20449;-81
2021/01/19 10:03:11;;;;;;;4.53;1.48;;;;;;;19.52;48.72;99496.75;5089074;28;20064;-79
2021/01/19 10:05:37;;;;;;;4.32;1.15;;;;;;;19.33;49.44;99506.31;5090758;28;20118;-79
2021/01/19 10:08:03;;;;;;;7.45;1.77;;;;;;;19.49;49.11;99497.53;5090425;28;20099;-81
2021/01/19 10:10:37;;;;;;;7.30;1.75;;;;;;;19.41;49.01;99503.13;5093469;28;20110;-82
2021/01/19 10:13:03;;;;;;;8.45;2.38;;;;;;;19.46;49.13;99488.06;5096814;28;20519;-82
2021/01/19 10:15:29;;;;;;;9.35;4.95;;;;;;;19.55;48.72;99490.41;5099520;28;20426;-82
2021/01/19 10:17:59;;;;;;;38.67;35.40;;;;;;;19.63;48.35;99483.66;5095422;28;20039;-79
2021/01/19 10:20:35;;;;;;;7.78;5.38;;;;;;;19.91;47.70;99471.59;5101116;28;20050;-83
2021/01/19 10:23:02;;;;;;;8.85;5.80;;;;;;;19.71;48.03;99470.53;5098232;28;20535;-80
2021/01/19 10:25:32;;;;;;;24.98;22.80;;;;;;;19.58;48.50;99473.00;5100171;28;20489;-80
2021/01/19 10:28:04;;;;;;;9.35;8.43;;;;;;;19.79;47.86;99467.31;5076647;28;20028;-81
2021/01/19 10:30:35;;;;;;;13.45;9.10;;;;;;;19.65;48.23;99456.34;5092613;28;20026;-81
2021/01/19 10:33:02;;;;;;;4.88;3.63;;;;;;;19.71;47.97;99454.69;5093860;28;20028;-82
2021/01/19 10:35:36;;;;;;;17.23;15.57;;;;;;;19.63;48.36;99447.63;5093469;28;20024;-80
2021/01/19 10:38:06;;;;;;;9.35;2.72;;;;;;;19.65;48.35;99446.06;5093931;28;20036;-80
2021/01/19 10:40:31;;;;;;;;;;;;;;;19.82;47.84;99451.88;5092661;28;20142;-78
2021/01/19 10:43:00;;;;;;;3.63;1.25;;;;;;;19.99;47.41;99439.09;5092769;28;19995;-80
2021/01/19 10:45:28;;;;;;;2.60;1.20;;;;;;;19.76;48.21;99434.09;5094092;28;20118;-81
2021/01/19 10:47:56;;;;;;;2.55;1.15;;;;;;;19.82;47.99;99424.16;5097018;28;20030;-81
2021/01/19 10:50:32;;;;;;;4.85;1.50;;;;;;;19.85;47.72;99437.97;5076443;28;20033;-82
2021/01/19 10:52:59;;;;;;;6.95;1.80;;;;;;;19.82;47.97;99421.41;5093191;28;20101;-80
2021/01/19 10:55:26;;;;;;;3.78;1.40;;;;;;;19.93;47.62;99422.88;5095218;28;20024;-81
2021/01/19 10:57:56;;;;;;;10.50;3.20;;;;;;;19.89;47.87;99426.88;5093794;28;20032;-81
2021/01/19 11:00:23;;;;;;;3.80;1.40;;;;;;;19.75;48.22;99419.47;5060341;28;20486;-80
2021/01/19 11:02:50;;;;;;;7.20;1.40;;;;;;;19.85;47.99;99421.34;5078420;28;20035;-80
2021/01/19 11:05:16;;;;;;;7.13;2.03;;;;;;;19.97;47.47;99419.31;5094728;28;20036;-82
2021/01/19 11:07:52;;;;;;;5.57;1.20;;;;;;;19.98;47.62;99410.56;5076925;28;20035;-82
2021/01/19 11:10:23;;;;;;;9.90;1.83;;;;;;;20.04;47.40;99406.16;5076520;28;20032;-82
2021/01/19 11:12:51;;;;;;;7.22;1.90;;;;;;;20.04;47.15;99411.72;5092836;28;20044;-81
2021/01/19 11:15:17;;;;;;;8.32;2.10;;;;;;;19.99;47.47;99401.06;5091026;28;20024;-80
2021/01/19 11:17:47;;;;;;;7.78;2.22;;;;;;;20.21;47.14;99407.19;5091911;28;20023;-80
2021/01/19 11:20:12;;;;;;;5.82;2.15;;;;;;;20.28;46.84;99403.56;5092354;28;20458;-80
2021/01/19 11:22:43;;;;;;;11.90;3.25;;;;;;;20.35;46.46;99397.97;5092289;28;20059;-81
2021/01/19 11:25:09;;;;;;;9.20;2.08;;;;;;;20.47;46.37;99395.47;5093465;28;20024;-80
2021/01/19 11:27:35;;;;;;;6.57;1.63;;;;;;;20.62;45.80;99387.00;5092853;28;20077;-79
2021/01/19 11:30:00;;;;;;;7.57;2.42;;;;;;;20.74;45.64;99378.16;5094018;28;20031;-77
2021/01/19 11:32:26;;;;;;;10.45;3.85;;;;;;;20.34;46.48;99358.34;5093207;28;20024;-78
2021/01/19 11:34:52;;;;;;;14.50;7.05;;;;;;;20.24;46.85;99365.56;5092261;28;20031;-79
2021/01/19 11:37:18;;;;;;;8.15;6.10;;;;;;;20.08;47.31;99356.22;5073603;28;20028;-82
2021/01/19 11:39:43;;;;;;;16.60;14.00;;;;;;;20.01;47.57;99345.97;5090283;28;20028;-81